<?xml version="1.0" encoding="utf-8"?>
<gpx xmlns:xsi="http://www.w3.org/2001/XMLSchema-instance" xmlns:xsd="http://www.w3.org/2001/XMLSchema" version="1.1" creator="Shapelink.com" xmlns="http://www.topografix.com/GPX/1/1" xmlns:gpxtpx="http://www.garmin.com/xmlschemas/TrackPointExtension/v1">
  <metadata>
    <name>Løping 4.88 km, 2012-04-24</name>
    <desc></desc>
    <author><name>Mikael Blom</name></author> 
    <time>2012-04-24T15:41:20Z</time>
  </metadata>
  <trk>
    <name>Løping 4.88 km, 2012-04-24</name>
    <trkseg>
      <trkpt lat="59.9811583" lon="17.7457927">
        <ele>31.3801</ele>
        <time>2012-04-24T15:41:20Z</time>
      </trkpt>
      <trkpt lat="59.9812107" lon="17.7460395">
        <ele>31.3801</ele>
        <time>2012-04-24T15:41:25Z</time>
      </trkpt>
      <trkpt lat="59.9812506" lon="17.746234">
        <ele>31.8607</ele>
        <time>2012-04-24T15:41:29Z</time>
      </trkpt>
      <trkpt lat="59.9813301" lon="17.7465007">
        <ele>33.7834</ele>
        <time>2012-04-24T15:41:35Z</time>
      </trkpt>
      <trkpt lat="59.9813577" lon="17.7465889">
        <ele>34.2642</ele>
        <time>2012-04-24T15:41:37Z</time>
      </trkpt>
      <trkpt lat="59.9814211" lon="17.7468168">
        <ele>35.2255</ele>
        <time>2012-04-24T15:41:43Z</time>
      </trkpt>
      <trkpt lat="59.9814887" lon="17.747007">
        <ele>38.1094</ele>
        <time>2012-04-24T15:41:47Z</time>
      </trkpt>
      <trkpt lat="59.9815593" lon="17.7472567">
        <ele>40.5128</ele>
        <time>2012-04-24T15:41:53Z</time>
      </trkpt>
      <trkpt lat="59.9816017" lon="17.7473917">
        <ele>42.4354</ele>
        <time>2012-04-24T15:41:57Z</time>
      </trkpt>
      <trkpt lat="59.9816383" lon="17.7474714">
        <ele>40.5128</ele>
        <time>2012-04-24T15:42:01Z</time>
      </trkpt>
      <trkpt lat="59.9817464" lon="17.7475193">
        <ele>42.916</ele>
        <time>2012-04-24T15:42:08Z</time>
      </trkpt>
      <trkpt lat="59.9818509" lon="17.7475654">
        <ele>44.8386</ele>
        <time>2012-04-24T15:42:13Z</time>
      </trkpt>
      <trkpt lat="59.9819386" lon="17.7476389">
        <ele>46.7612</ele>
        <time>2012-04-24T15:42:18Z</time>
      </trkpt>
      <trkpt lat="59.9820312" lon="17.7477425">
        <ele>49.6453</ele>
        <time>2012-04-24T15:42:23Z</time>
      </trkpt>
      <trkpt lat="59.9822118" lon="17.7479078">
        <ele>58.2971</ele>
        <time>2012-04-24T15:42:29Z</time>
      </trkpt>
      <trkpt lat="59.9822865" lon="17.7480064">
        <ele>57.3358</ele>
        <time>2012-04-24T15:42:34Z</time>
      </trkpt>
      <trkpt lat="59.9823721" lon="17.7481751">
        <ele>59.2584</ele>
        <time>2012-04-24T15:42:39Z</time>
      </trkpt>
      <trkpt lat="59.982419" lon="17.7482575">
        <ele>59.2584</ele>
        <time>2012-04-24T15:42:42Z</time>
      </trkpt>
      <trkpt lat="59.9824877" lon="17.7483677">
        <ele>61.6617</ele>
        <time>2012-04-24T15:42:46Z</time>
      </trkpt>
      <trkpt lat="59.9824991" lon="17.7484008">
        <ele>61.6617</ele>
        <time>2012-04-24T15:42:47Z</time>
      </trkpt>
      <trkpt lat="59.9825941" lon="17.7485643">
        <ele>60.2197</ele>
        <time>2012-04-24T15:42:53Z</time>
      </trkpt>
      <trkpt lat="59.982658" lon="17.7486961">
        <ele>59.7391</ele>
        <time>2012-04-24T15:42:58Z</time>
      </trkpt>
      <trkpt lat="59.9827424" lon="17.7488399">
        <ele>58.7777</ele>
        <time>2012-04-24T15:43:03Z</time>
      </trkpt>
      <trkpt lat="59.9828222" lon="17.7489623">
        <ele>60.7003</ele>
        <time>2012-04-24T15:43:07Z</time>
      </trkpt>
      <trkpt lat="59.9828574" lon="17.7490171">
        <ele>62.1423</ele>
        <time>2012-04-24T15:43:09Z</time>
      </trkpt>
      <trkpt lat="59.9829579" lon="17.7492022">
        <ele>61.6617</ele>
        <time>2012-04-24T15:43:15Z</time>
      </trkpt>
      <trkpt lat="59.9830527" lon="17.7494009">
        <ele>60.2197</ele>
        <time>2012-04-24T15:43:21Z</time>
      </trkpt>
      <trkpt lat="59.9831264" lon="17.7495555">
        <ele>57.3358</ele>
        <time>2012-04-24T15:43:26Z</time>
      </trkpt>
      <trkpt lat="59.9831501" lon="17.7496276">
        <ele>54.9324</ele>
        <time>2012-04-24T15:43:28Z</time>
      </trkpt>
      <trkpt lat="59.9832403" lon="17.7498005">
        <ele>52.5292</ele>
        <time>2012-04-24T15:43:34Z</time>
      </trkpt>
      <trkpt lat="59.9833651" lon="17.7499979">
        <ele>55.8938</ele>
        <time>2012-04-24T15:43:40Z</time>
      </trkpt>
      <trkpt lat="59.9833997" lon="17.7500588">
        <ele>55.8938</ele>
        <time>2012-04-24T15:43:42Z</time>
      </trkpt>
      <trkpt lat="59.9835211" lon="17.7502755">
        <ele>59.7391</ele>
        <time>2012-04-24T15:43:48Z</time>
      </trkpt>
      <trkpt lat="59.9835366" lon="17.7503003">
        <ele>61.181</ele>
        <time>2012-04-24T15:43:49Z</time>
      </trkpt>
      <trkpt lat="59.9835838" lon="17.7504587">
        <ele>62.6229</ele>
        <time>2012-04-24T15:43:54Z</time>
      </trkpt>
      <trkpt lat="59.9836116" lon="17.7505221">
        <ele>62.6229</ele>
        <time>2012-04-24T15:43:56Z</time>
      </trkpt>
      <trkpt lat="59.9837131" lon="17.7507126">
        <ele>61.6617</ele>
        <time>2012-04-24T15:44:02Z</time>
      </trkpt>
      <trkpt lat="59.9837954" lon="17.7508467">
        <ele>58.7777</ele>
        <time>2012-04-24T15:44:07Z</time>
      </trkpt>
      <trkpt lat="59.9838982" lon="17.7509938">
        <ele>55.8938</ele>
        <time>2012-04-24T15:44:12Z</time>
      </trkpt>
      <trkpt lat="59.9839725" lon="17.7511173">
        <ele>53.4905</ele>
        <time>2012-04-24T15:44:16Z</time>
      </trkpt>
      <trkpt lat="59.9840683" lon="17.7512598">
        <ele>51.5679</ele>
        <time>2012-04-24T15:44:22Z</time>
      </trkpt>
      <trkpt lat="59.9841037" lon="17.7512802">
        <ele>48.684</ele>
        <time>2012-04-24T15:44:25Z</time>
      </trkpt>
      <trkpt lat="59.9841901" lon="17.7513764">
        <ele>42.4354</ele>
        <time>2012-04-24T15:44:31Z</time>
      </trkpt>
      <trkpt lat="59.9842066" lon="17.7513966">
        <ele>41.474</ele>
        <time>2012-04-24T15:44:32Z</time>
      </trkpt>
      <trkpt lat="59.9843325" lon="17.7515116">
        <ele>36.1868</ele>
        <time>2012-04-24T15:44:39Z</time>
      </trkpt>
      <trkpt lat="59.9844307" lon="17.7516447">
        <ele>35.7061</ele>
        <time>2012-04-24T15:44:44Z</time>
      </trkpt>
      <trkpt lat="59.9845381" lon="17.7518004">
        <ele>34.2642</ele>
        <time>2012-04-24T15:44:50Z</time>
      </trkpt>
      <trkpt lat="59.9846513" lon="17.7519056">
        <ele>36.1868</ele>
        <time>2012-04-24T15:44:55Z</time>
      </trkpt>
      <trkpt lat="59.9847398" lon="17.7520252">
        <ele>36.6675</ele>
        <time>2012-04-24T15:45:00Z</time>
      </trkpt>
      <trkpt lat="59.9848573" lon="17.7521391">
        <ele>37.6287</ele>
        <time>2012-04-24T15:45:06Z</time>
      </trkpt>
      <trkpt lat="59.9849503" lon="17.752332">
        <ele>38.1094</ele>
        <time>2012-04-24T15:45:12Z</time>
      </trkpt>
      <trkpt lat="59.9850113" lon="17.7524998">
        <ele>41.474</ele>
        <time>2012-04-24T15:45:17Z</time>
      </trkpt>
      <trkpt lat="59.9851075" lon="17.7526869">
        <ele>44.358</ele>
        <time>2012-04-24T15:45:23Z</time>
      </trkpt>
      <trkpt lat="59.9851755" lon="17.7528169">
        <ele>47.7225</ele>
        <time>2012-04-24T15:45:27Z</time>
      </trkpt>
      <trkpt lat="59.9852294" lon="17.752978">
        <ele>48.684</ele>
        <time>2012-04-24T15:45:31Z</time>
      </trkpt>
      <trkpt lat="59.9853075" lon="17.7531322">
        <ele>53.4905</ele>
        <time>2012-04-24T15:45:35Z</time>
      </trkpt>
      <trkpt lat="59.9853739" lon="17.7533108">
        <ele>57.3358</ele>
        <time>2012-04-24T15:45:40Z</time>
      </trkpt>
      <trkpt lat="59.9854143" lon="17.7534788">
        <ele>58.7777</ele>
        <time>2012-04-24T15:45:44Z</time>
      </trkpt>
      <trkpt lat="59.9855355" lon="17.7537019">
        <ele>61.181</ele>
        <time>2012-04-24T15:45:51Z</time>
      </trkpt>
      <trkpt lat="59.9856079" lon="17.7538146">
        <ele>58.2971</ele>
        <time>2012-04-24T15:45:56Z</time>
      </trkpt>
      <trkpt lat="59.9856743" lon="17.7539099">
        <ele>56.3745</ele>
        <time>2012-04-24T15:46:00Z</time>
      </trkpt>
      <trkpt lat="59.9857195" lon="17.7541109">
        <ele>53.0098</ele>
        <time>2012-04-24T15:46:05Z</time>
      </trkpt>
      <trkpt lat="59.9858019" lon="17.7542999">
        <ele>50.6066</ele>
        <time>2012-04-24T15:46:11Z</time>
      </trkpt>
      <trkpt lat="59.9858992" lon="17.7544252">
        <ele>51.0872</ele>
        <time>2012-04-24T15:46:16Z</time>
      </trkpt>
      <trkpt lat="59.9859747" lon="17.7545981">
        <ele>53.0098</ele>
        <time>2012-04-24T15:46:21Z</time>
      </trkpt>
      <trkpt lat="59.9860147" lon="17.7548172">
        <ele>51.5679</ele>
        <time>2012-04-24T15:46:26Z</time>
      </trkpt>
      <trkpt lat="59.9860271" lon="17.7549861">
        <ele>48.684</ele>
        <time>2012-04-24T15:46:30Z</time>
      </trkpt>
      <trkpt lat="59.9860613" lon="17.7551952">
        <ele>48.2034</ele>
        <time>2012-04-24T15:46:35Z</time>
      </trkpt>
      <trkpt lat="59.9860942" lon="17.7553974">
        <ele>46.2806</ele>
        <time>2012-04-24T15:46:40Z</time>
      </trkpt>
      <trkpt lat="59.9861307" lon="17.7556064">
        <ele>45.3192</ele>
        <time>2012-04-24T15:46:45Z</time>
      </trkpt>
      <trkpt lat="59.9861551" lon="17.7558163">
        <ele>44.358</ele>
        <time>2012-04-24T15:46:50Z</time>
      </trkpt>
      <trkpt lat="59.9862249" lon="17.7560109">
        <ele>46.2806</ele>
        <time>2012-04-24T15:46:55Z</time>
      </trkpt>
      <trkpt lat="59.9862746" lon="17.7562855">
        <ele>47.7225</ele>
        <time>2012-04-24T15:47:02Z</time>
      </trkpt>
      <trkpt lat="59.9863189" lon="17.7565051">
        <ele>48.2034</ele>
        <time>2012-04-24T15:47:07Z</time>
      </trkpt>
      <trkpt lat="59.9863421" lon="17.7565933">
        <ele>48.684</ele>
        <time>2012-04-24T15:47:09Z</time>
      </trkpt>
      <trkpt lat="59.9864099" lon="17.7568514">
        <ele>50.6066</ele>
        <time>2012-04-24T15:47:15Z</time>
      </trkpt>
      <trkpt lat="59.9864855" lon="17.7570507">
        <ele>53.0098</ele>
        <time>2012-04-24T15:47:20Z</time>
      </trkpt>
      <trkpt lat="59.9865364" lon="17.7571947">
        <ele>52.0486</ele>
        <time>2012-04-24T15:47:24Z</time>
      </trkpt>
      <trkpt lat="59.986614" lon="17.7574117">
        <ele>51.5679</ele>
        <time>2012-04-24T15:47:30Z</time>
      </trkpt>
      <trkpt lat="59.9866749" lon="17.7576462">
        <ele>47.7225</ele>
        <time>2012-04-24T15:47:36Z</time>
      </trkpt>
      <trkpt lat="59.9867346" lon="17.757826">
        <ele>45.7999</ele>
        <time>2012-04-24T15:47:41Z</time>
      </trkpt>
      <trkpt lat="59.9868191" lon="17.7579841">
        <ele>45.7999</ele>
        <time>2012-04-24T15:47:47Z</time>
      </trkpt>
      <trkpt lat="59.9869259" lon="17.758133">
        <ele>48.684</ele>
        <time>2012-04-24T15:47:52Z</time>
      </trkpt>
      <trkpt lat="59.9869998" lon="17.7583182">
        <ele>49.1646</ele>
        <time>2012-04-24T15:47:57Z</time>
      </trkpt>
      <trkpt lat="59.9870557" lon="17.7585616">
        <ele>48.684</ele>
        <time>2012-04-24T15:48:03Z</time>
      </trkpt>
      <trkpt lat="59.9871004" lon="17.7587867">
        <ele>48.684</ele>
        <time>2012-04-24T15:48:08Z</time>
      </trkpt>
      <trkpt lat="59.9871687" lon="17.7589998">
        <ele>48.684</ele>
        <time>2012-04-24T15:48:13Z</time>
      </trkpt>
      <trkpt lat="59.987235" lon="17.7591844">
        <ele>48.684</ele>
        <time>2012-04-24T15:48:18Z</time>
      </trkpt>
      <trkpt lat="59.9872916" lon="17.7593592">
        <ele>48.684</ele>
        <time>2012-04-24T15:48:23Z</time>
      </trkpt>
      <trkpt lat="59.9873489" lon="17.7595819">
        <ele>47.2418</ele>
        <time>2012-04-24T15:48:29Z</time>
      </trkpt>
      <trkpt lat="59.9873618" lon="17.7597047">
        <ele>44.8386</ele>
        <time>2012-04-24T15:48:32Z</time>
      </trkpt>
      <trkpt lat="59.9873829" lon="17.7598867">
        <ele>44.8386</ele>
        <time>2012-04-24T15:48:36Z</time>
      </trkpt>
      <trkpt lat="59.9874024" lon="17.7601566">
        <ele>43.3966</ele>
        <time>2012-04-24T15:48:42Z</time>
      </trkpt>
      <trkpt lat="59.9874118" lon="17.7601997">
        <ele>43.8773</ele>
        <time>2012-04-24T15:48:43Z</time>
      </trkpt>
      <trkpt lat="59.9874071" lon="17.7604537">
        <ele>42.4354</ele>
        <time>2012-04-24T15:48:48Z</time>
      </trkpt>
      <trkpt lat="59.9874231" lon="17.7605456">
        <ele>41.474</ele>
        <time>2012-04-24T15:48:50Z</time>
      </trkpt>
      <trkpt lat="59.9874922" lon="17.7607674">
        <ele>40.5128</ele>
        <time>2012-04-24T15:48:55Z</time>
      </trkpt>
      <trkpt lat="59.9875314" lon="17.7609963">
        <ele>39.0707</ele>
        <time>2012-04-24T15:49:00Z</time>
      </trkpt>
      <trkpt lat="59.9875511" lon="17.7611763">
        <ele>37.6287</ele>
        <time>2012-04-24T15:49:04Z</time>
      </trkpt>
      <trkpt lat="59.9875832" lon="17.7613945">
        <ele>36.1868</ele>
        <time>2012-04-24T15:49:09Z</time>
      </trkpt>
      <trkpt lat="59.9875932" lon="17.7614794">
        <ele>35.2255</ele>
        <time>2012-04-24T15:49:11Z</time>
      </trkpt>
      <trkpt lat="59.9876448" lon="17.7616162">
        <ele>33.3029</ele>
        <time>2012-04-24T15:49:15Z</time>
      </trkpt>
      <trkpt lat="59.9877697" lon="17.7617519">
        <ele>32.8223</ele>
        <time>2012-04-24T15:49:21Z</time>
      </trkpt>
      <trkpt lat="59.9878838" lon="17.7618085">
        <ele>33.7834</ele>
        <time>2012-04-24T15:49:26Z</time>
      </trkpt>
      <trkpt lat="59.9879883" lon="17.7618685">
        <ele>33.3029</ele>
        <time>2012-04-24T15:49:31Z</time>
      </trkpt>
      <trkpt lat="59.9880743" lon="17.7618975">
        <ele>33.7834</ele>
        <time>2012-04-24T15:49:35Z</time>
      </trkpt>
      <trkpt lat="59.9881613" lon="17.7619182">
        <ele>35.2255</ele>
        <time>2012-04-24T15:49:39Z</time>
      </trkpt>
      <trkpt lat="59.988268" lon="17.7619509">
        <ele>36.1868</ele>
        <time>2012-04-24T15:49:44Z</time>
      </trkpt>
      <trkpt lat="59.9883823" lon="17.7619896">
        <ele>35.7061</ele>
        <time>2012-04-24T15:49:49Z</time>
      </trkpt>
      <trkpt lat="59.9884792" lon="17.7620716">
        <ele>35.2255</ele>
        <time>2012-04-24T15:49:54Z</time>
      </trkpt>
      <trkpt lat="59.9885643" lon="17.7621839">
        <ele>31.8607</ele>
        <time>2012-04-24T15:49:59Z</time>
      </trkpt>
      <trkpt lat="59.988648" lon="17.7623136">
        <ele>28.9769</ele>
        <time>2012-04-24T15:50:04Z</time>
      </trkpt>
      <trkpt lat="59.9887196" lon="17.7623916">
        <ele>26.0929</ele>
        <time>2012-04-24T15:50:09Z</time>
      </trkpt>
      <trkpt lat="59.9888174" lon="17.7624335">
        <ele>25.6123</ele>
        <time>2012-04-24T15:50:14Z</time>
      </trkpt>
      <trkpt lat="59.988942" lon="17.7624514">
        <ele>26.5736</ele>
        <time>2012-04-24T15:50:20Z</time>
      </trkpt>
      <trkpt lat="59.9890321" lon="17.7624237">
        <ele>28.9769</ele>
        <time>2012-04-24T15:50:24Z</time>
      </trkpt>
      <trkpt lat="59.9891565" lon="17.762366">
        <ele>33.3029</ele>
        <time>2012-04-24T15:50:29Z</time>
      </trkpt>
      <trkpt lat="59.9892471" lon="17.7623508">
        <ele>34.7449</ele>
        <time>2012-04-24T15:50:32Z</time>
      </trkpt>
      <trkpt lat="59.989319" lon="17.7623125">
        <ele>36.6675</ele>
        <time>2012-04-24T15:50:35Z</time>
      </trkpt>
      <trkpt lat="59.989477" lon="17.7623208">
        <ele>39.0707</ele>
        <time>2012-04-24T15:50:41Z</time>
      </trkpt>
      <trkpt lat="59.9895009" lon="17.762324">
        <ele>39.0707</ele>
        <time>2012-04-24T15:50:42Z</time>
      </trkpt>
      <trkpt lat="59.9896659" lon="17.7624399">
        <ele>36.1868</ele>
        <time>2012-04-24T15:50:49Z</time>
      </trkpt>
      <trkpt lat="59.98977" lon="17.7625428">
        <ele>36.6675</ele>
        <time>2012-04-24T15:50:55Z</time>
      </trkpt>
      <trkpt lat="59.9898889" lon="17.7626134">
        <ele>38.5901</ele>
        <time>2012-04-24T15:51:00Z</time>
      </trkpt>
      <trkpt lat="59.9899724" lon="17.7626798">
        <ele>37.1481</ele>
        <time>2012-04-24T15:51:04Z</time>
      </trkpt>
      <trkpt lat="59.9900924" lon="17.7627589">
        <ele>38.1094</ele>
        <time>2012-04-24T15:51:09Z</time>
      </trkpt>
      <trkpt lat="59.9901962" lon="17.7628712">
        <ele>38.5901</ele>
        <time>2012-04-24T15:51:14Z</time>
      </trkpt>
      <trkpt lat="59.9903613" lon="17.7630367">
        <ele>43.3966</ele>
        <time>2012-04-24T15:51:21Z</time>
      </trkpt>
      <trkpt lat="59.9904379" lon="17.7631538">
        <ele>43.3966</ele>
        <time>2012-04-24T15:51:26Z</time>
      </trkpt>
      <trkpt lat="59.9905536" lon="17.7632732">
        <ele>45.3192</ele>
        <time>2012-04-24T15:51:31Z</time>
      </trkpt>
      <trkpt lat="59.9906916" lon="17.7634027">
        <ele>51.5679</ele>
        <time>2012-04-24T15:51:36Z</time>
      </trkpt>
      <trkpt lat="59.9907544" lon="17.7634998">
        <ele>43.3966</ele>
        <time>2012-04-24T15:51:41Z</time>
      </trkpt>
      <trkpt lat="59.990858" lon="17.7636275">
        <ele>47.2418</ele>
        <time>2012-04-24T15:51:46Z</time>
      </trkpt>
      <trkpt lat="59.9909359" lon="17.7637391">
        <ele>40.9934</ele>
        <time>2012-04-24T15:51:52Z</time>
      </trkpt>
      <trkpt lat="59.9910393" lon="17.7638945">
        <ele>42.916</ele>
        <time>2012-04-24T15:51:58Z</time>
      </trkpt>
      <trkpt lat="59.9911326" lon="17.7640805">
        <ele>41.474</ele>
        <time>2012-04-24T15:52:04Z</time>
      </trkpt>
      <trkpt lat="59.9912237" lon="17.7642649">
        <ele>46.2806</ele>
        <time>2012-04-24T15:52:08Z</time>
      </trkpt>
      <trkpt lat="59.9912796" lon="17.764438">
        <ele>45.3192</ele>
        <time>2012-04-24T15:52:12Z</time>
      </trkpt>
      <trkpt lat="59.9913439" lon="17.7646352">
        <ele>49.6453</ele>
        <time>2012-04-24T15:52:17Z</time>
      </trkpt>
      <trkpt lat="59.9914243" lon="17.764835">
        <ele>50.126</ele>
        <time>2012-04-24T15:52:22Z</time>
      </trkpt>
      <trkpt lat="59.9914989" lon="17.7649251">
        <ele>48.2034</ele>
        <time>2012-04-24T15:52:26Z</time>
      </trkpt>
      <trkpt lat="59.9915756" lon="17.7649051">
        <ele>47.2418</ele>
        <time>2012-04-24T15:52:30Z</time>
      </trkpt>
      <trkpt lat="59.9916252" lon="17.7647962">
        <ele>43.3966</ele>
        <time>2012-04-24T15:52:34Z</time>
      </trkpt>
      <trkpt lat="59.9917341" lon="17.7645087">
        <ele>43.3966</ele>
        <time>2012-04-24T15:52:41Z</time>
      </trkpt>
      <trkpt lat="59.9918257" lon="17.7643248">
        <ele>43.3966</ele>
        <time>2012-04-24T15:52:46Z</time>
      </trkpt>
      <trkpt lat="59.9919576" lon="17.7641114">
        <ele>46.7612</ele>
        <time>2012-04-24T15:52:52Z</time>
      </trkpt>
      <trkpt lat="59.9920522" lon="17.7639337">
        <ele>50.6066</ele>
        <time>2012-04-24T15:52:57Z</time>
      </trkpt>
      <trkpt lat="59.9921558" lon="17.7638028">
        <ele>53.9712</ele>
        <time>2012-04-24T15:53:02Z</time>
      </trkpt>
      <trkpt lat="59.9922246" lon="17.7636794">
        <ele>54.9324</ele>
        <time>2012-04-24T15:53:06Z</time>
      </trkpt>
      <trkpt lat="59.9922938" lon="17.7635677">
        <ele>54.9324</ele>
        <time>2012-04-24T15:53:10Z</time>
      </trkpt>
      <trkpt lat="59.9924031" lon="17.7633694">
        <ele>56.8551</ele>
        <time>2012-04-24T15:53:16Z</time>
      </trkpt>
      <trkpt lat="59.9924205" lon="17.7633299">
        <ele>57.3358</ele>
        <time>2012-04-24T15:53:17Z</time>
      </trkpt>
      <trkpt lat="59.9925191" lon="17.7630144">
        <ele>62.1423</ele>
        <time>2012-04-24T15:53:24Z</time>
      </trkpt>
      <trkpt lat="59.992595" lon="17.7628056">
        <ele>66.949</ele>
        <time>2012-04-24T15:53:29Z</time>
      </trkpt>
      <trkpt lat="59.9926701" lon="17.7626275">
        <ele>66.949</ele>
        <time>2012-04-24T15:53:34Z</time>
      </trkpt>
      <trkpt lat="59.9927388" lon="17.7624249">
        <ele>64.0651</ele>
        <time>2012-04-24T15:53:40Z</time>
      </trkpt>
      <trkpt lat="59.9927782" lon="17.7622539">
        <ele>62.1423</ele>
        <time>2012-04-24T15:53:45Z</time>
      </trkpt>
      <trkpt lat="59.9927957" lon="17.7621372">
        <ele>61.6617</ele>
        <time>2012-04-24T15:53:48Z</time>
      </trkpt>
      <trkpt lat="59.9927642" lon="17.7618756">
        <ele>60.2197</ele>
        <time>2012-04-24T15:53:54Z</time>
      </trkpt>
      <trkpt lat="59.9927866" lon="17.7617133">
        <ele>61.181</ele>
        <time>2012-04-24T15:53:58Z</time>
      </trkpt>
      <trkpt lat="59.9927949" lon="17.7615231">
        <ele>61.181</ele>
        <time>2012-04-24T15:54:02Z</time>
      </trkpt>
      <trkpt lat="59.9928022" lon="17.76136">
        <ele>60.2197</ele>
        <time>2012-04-24T15:54:06Z</time>
      </trkpt>
      <trkpt lat="59.9928213" lon="17.7611623">
        <ele>58.2971</ele>
        <time>2012-04-24T15:54:11Z</time>
      </trkpt>
      <trkpt lat="59.9928456" lon="17.7609694">
        <ele>56.3745</ele>
        <time>2012-04-24T15:54:16Z</time>
      </trkpt>
      <trkpt lat="59.9928546" lon="17.7608554">
        <ele>54.9324</ele>
        <time>2012-04-24T15:54:19Z</time>
      </trkpt>
      <trkpt lat="59.9928655" lon="17.7606866">
        <ele>55.4131</ele>
        <time>2012-04-24T15:54:23Z</time>
      </trkpt>
      <trkpt lat="59.9928559" lon="17.7605467">
        <ele>54.9324</ele>
        <time>2012-04-24T15:54:26Z</time>
      </trkpt>
      <trkpt lat="59.9928882" lon="17.760297">
        <ele>53.9712</ele>
        <time>2012-04-24T15:54:32Z</time>
      </trkpt>
      <trkpt lat="59.9928923" lon="17.7601327">
        <ele>53.4905</ele>
        <time>2012-04-24T15:54:36Z</time>
      </trkpt>
      <trkpt lat="59.9929021" lon="17.7599955">
        <ele>54.4518</ele>
        <time>2012-04-24T15:54:39Z</time>
      </trkpt>
      <trkpt lat="59.9928924" lon="17.7598105">
        <ele>54.9324</ele>
        <time>2012-04-24T15:54:43Z</time>
      </trkpt>
      <trkpt lat="59.9928606" lon="17.7595706">
        <ele>53.0098</ele>
        <time>2012-04-24T15:54:48Z</time>
      </trkpt>
      <trkpt lat="59.9928286" lon="17.7594401">
        <ele>52.0486</ele>
        <time>2012-04-24T15:54:51Z</time>
      </trkpt>
      <trkpt lat="59.992739" lon="17.7591162">
        <ele>47.2418</ele>
        <time>2012-04-24T15:54:58Z</time>
      </trkpt>
      <trkpt lat="59.9926935" lon="17.7589611">
        <ele>44.358</ele>
        <time>2012-04-24T15:55:02Z</time>
      </trkpt>
      <trkpt lat="59.9926702" lon="17.7588237">
        <ele>41.9547</ele>
        <time>2012-04-24T15:55:06Z</time>
      </trkpt>
      <trkpt lat="59.9926369" lon="17.7586577">
        <ele>41.474</ele>
        <time>2012-04-24T15:55:10Z</time>
      </trkpt>
      <trkpt lat="59.9926271" lon="17.7586155">
        <ele>40.5128</ele>
        <time>2012-04-24T15:55:11Z</time>
      </trkpt>
      <trkpt lat="59.9925701" lon="17.7584088">
        <ele>39.0707</ele>
        <time>2012-04-24T15:55:16Z</time>
      </trkpt>
      <trkpt lat="59.9925564" lon="17.7583268">
        <ele>39.5513</ele>
        <time>2012-04-24T15:55:18Z</time>
      </trkpt>
      <trkpt lat="59.9925355" lon="17.7581603">
        <ele>38.1094</ele>
        <time>2012-04-24T15:55:22Z</time>
      </trkpt>
      <trkpt lat="59.9924779" lon="17.7579462">
        <ele>36.6675</ele>
        <time>2012-04-24T15:55:27Z</time>
      </trkpt>
      <trkpt lat="59.9924469" lon="17.7578191">
        <ele>37.1481</ele>
        <time>2012-04-24T15:55:30Z</time>
      </trkpt>
      <trkpt lat="59.9924223" lon="17.7576519">
        <ele>36.6675</ele>
        <time>2012-04-24T15:55:34Z</time>
      </trkpt>
      <trkpt lat="59.9924204" lon="17.7575391">
        <ele>38.1094</ele>
        <time>2012-04-24T15:55:37Z</time>
      </trkpt>
      <trkpt lat="59.9923773" lon="17.7574277">
        <ele>38.5901</ele>
        <time>2012-04-24T15:55:40Z</time>
      </trkpt>
      <trkpt lat="59.9923554" lon="17.7572128">
        <ele>40.0321</ele>
        <time>2012-04-24T15:55:45Z</time>
      </trkpt>
      <trkpt lat="59.9923218" lon="17.7570024">
        <ele>43.3966</ele>
        <time>2012-04-24T15:55:50Z</time>
      </trkpt>
      <trkpt lat="59.9922883" lon="17.7568408">
        <ele>43.3966</ele>
        <time>2012-04-24T15:55:54Z</time>
      </trkpt>
      <trkpt lat="59.9922754" lon="17.7567268">
        <ele>44.8386</ele>
        <time>2012-04-24T15:55:57Z</time>
      </trkpt>
      <trkpt lat="59.9922374" lon="17.7564486">
        <ele>45.7999</ele>
        <time>2012-04-24T15:56:04Z</time>
      </trkpt>
      <trkpt lat="59.9921749" lon="17.756239">
        <ele>44.8386</ele>
        <time>2012-04-24T15:56:09Z</time>
      </trkpt>
      <trkpt lat="59.9920904" lon="17.7560463">
        <ele>45.3192</ele>
        <time>2012-04-24T15:56:13Z</time>
      </trkpt>
      <trkpt lat="59.9920218" lon="17.7558261">
        <ele>45.3192</ele>
        <time>2012-04-24T15:56:18Z</time>
      </trkpt>
      <trkpt lat="59.9919649" lon="17.7556679">
        <ele>43.3966</ele>
        <time>2012-04-24T15:56:22Z</time>
      </trkpt>
      <trkpt lat="59.9919423" lon="17.7555894">
        <ele>42.916</ele>
        <time>2012-04-24T15:56:24Z</time>
      </trkpt>
      <trkpt lat="59.9919403" lon="17.7554038">
        <ele>41.474</ele>
        <time>2012-04-24T15:56:29Z</time>
      </trkpt>
      <trkpt lat="59.9919307" lon="17.7553694">
        <ele>40.5128</ele>
        <time>2012-04-24T15:56:30Z</time>
      </trkpt>
      <trkpt lat="59.9918966" lon="17.7552267">
        <ele>39.0707</ele>
        <time>2012-04-24T15:56:34Z</time>
      </trkpt>
      <trkpt lat="59.991875" lon="17.7550832">
        <ele>38.1094</ele>
        <time>2012-04-24T15:56:38Z</time>
      </trkpt>
      <trkpt lat="59.9918405" lon="17.7548775">
        <ele>38.5901</ele>
        <time>2012-04-24T15:56:44Z</time>
      </trkpt>
      <trkpt lat="59.9917993" lon="17.7546693">
        <ele>41.474</ele>
        <time>2012-04-24T15:56:48Z</time>
      </trkpt>
      <trkpt lat="59.9917895" lon="17.7545066">
        <ele>42.916</ele>
        <time>2012-04-24T15:56:52Z</time>
      </trkpt>
      <trkpt lat="59.9917631" lon="17.7543676">
        <ele>43.8773</ele>
        <time>2012-04-24T15:56:56Z</time>
      </trkpt>
      <trkpt lat="59.9917206" lon="17.7541185">
        <ele>44.358</ele>
        <time>2012-04-24T15:57:02Z</time>
      </trkpt>
      <trkpt lat="59.9916913" lon="17.7539362">
        <ele>44.8386</ele>
        <time>2012-04-24T15:57:06Z</time>
      </trkpt>
      <trkpt lat="59.9916631" lon="17.7537119">
        <ele>45.3192</ele>
        <time>2012-04-24T15:57:11Z</time>
      </trkpt>
      <trkpt lat="59.9916201" lon="17.7535639">
        <ele>46.2806</ele>
        <time>2012-04-24T15:57:15Z</time>
      </trkpt>
      <trkpt lat="59.9915862" lon="17.7533556">
        <ele>48.2034</ele>
        <time>2012-04-24T15:57:20Z</time>
      </trkpt>
      <trkpt lat="59.9915423" lon="17.7531453">
        <ele>49.1646</ele>
        <time>2012-04-24T15:57:25Z</time>
      </trkpt>
      <trkpt lat="59.9914739" lon="17.752913">
        <ele>47.7225</ele>
        <time>2012-04-24T15:57:31Z</time>
      </trkpt>
      <trkpt lat="59.9914311" lon="17.7526853">
        <ele>46.2806</ele>
        <time>2012-04-24T15:57:37Z</time>
      </trkpt>
      <trkpt lat="59.9914088" lon="17.7525004">
        <ele>46.7612</ele>
        <time>2012-04-24T15:57:42Z</time>
      </trkpt>
      <trkpt lat="59.9913925" lon="17.7523386">
        <ele>48.2034</ele>
        <time>2012-04-24T15:57:46Z</time>
      </trkpt>
      <trkpt lat="59.9913695" lon="17.7521866">
        <ele>48.2034</ele>
        <time>2012-04-24T15:57:50Z</time>
      </trkpt>
      <trkpt lat="59.9913443" lon="17.7520269">
        <ele>49.1646</ele>
        <time>2012-04-24T15:57:54Z</time>
      </trkpt>
      <trkpt lat="59.9913087" lon="17.7518462">
        <ele>49.6453</ele>
        <time>2012-04-24T15:57:58Z</time>
      </trkpt>
      <trkpt lat="59.9912705" lon="17.7516286">
        <ele>50.6066</ele>
        <time>2012-04-24T15:58:03Z</time>
      </trkpt>
      <trkpt lat="59.9912175" lon="17.7513726">
        <ele>50.6066</ele>
        <time>2012-04-24T15:58:08Z</time>
      </trkpt>
      <trkpt lat="59.9911428" lon="17.7511194">
        <ele>48.684</ele>
        <time>2012-04-24T15:58:13Z</time>
      </trkpt>
      <trkpt lat="59.9911191" lon="17.7510282">
        <ele>47.7225</ele>
        <time>2012-04-24T15:58:15Z</time>
      </trkpt>
      <trkpt lat="59.9911129" lon="17.750813">
        <ele>46.7612</ele>
        <time>2012-04-24T15:58:20Z</time>
      </trkpt>
      <trkpt lat="59.9910775" lon="17.7505426">
        <ele>45.3192</ele>
        <time>2012-04-24T15:58:25Z</time>
      </trkpt>
      <trkpt lat="59.9910814" lon="17.7504602">
        <ele>44.8386</ele>
        <time>2012-04-24T15:58:27Z</time>
      </trkpt>
      <trkpt lat="59.9911182" lon="17.7502808">
        <ele>45.3192</ele>
        <time>2012-04-24T15:58:32Z</time>
      </trkpt>
      <trkpt lat="59.991129" lon="17.7501924">
        <ele>44.8386</ele>
        <time>2012-04-24T15:58:34Z</time>
      </trkpt>
      <trkpt lat="59.9911443" lon="17.7498589">
        <ele>45.7999</ele>
        <time>2012-04-24T15:58:41Z</time>
      </trkpt>
      <trkpt lat="59.9911296" lon="17.7496512">
        <ele>47.2418</ele>
        <time>2012-04-24T15:58:45Z</time>
      </trkpt>
      <trkpt lat="59.9911321" lon="17.7494453">
        <ele>48.2034</ele>
        <time>2012-04-24T15:58:49Z</time>
      </trkpt>
      <trkpt lat="59.9911423" lon="17.7492145">
        <ele>48.2034</ele>
        <time>2012-04-24T15:58:54Z</time>
      </trkpt>
      <trkpt lat="59.9911305" lon="17.7490296">
        <ele>45.3192</ele>
        <time>2012-04-24T15:58:58Z</time>
      </trkpt>
      <trkpt lat="59.9911749" lon="17.7488215">
        <ele>47.7225</ele>
        <time>2012-04-24T15:59:03Z</time>
      </trkpt>
      <trkpt lat="59.9912232" lon="17.7485428">
        <ele>53.4905</ele>
        <time>2012-04-24T15:59:09Z</time>
      </trkpt>
      <trkpt lat="59.9912523" lon="17.7483755">
        <ele>56.8551</ele>
        <time>2012-04-24T15:59:13Z</time>
      </trkpt>
      <trkpt lat="59.9912875" lon="17.7483066">
        <ele>59.2584</ele>
        <time>2012-04-24T15:59:15Z</time>
      </trkpt>
      <trkpt lat="59.9912896" lon="17.7481414">
        <ele>60.7003</ele>
        <time>2012-04-24T15:59:19Z</time>
      </trkpt>
      <trkpt lat="59.991316" lon="17.7479974">
        <ele>62.6229</ele>
        <time>2012-04-24T15:59:23Z</time>
      </trkpt>
      <trkpt lat="59.9913455" lon="17.7478802">
        <ele>62.6229</ele>
        <time>2012-04-24T15:59:26Z</time>
      </trkpt>
      <trkpt lat="59.991399" lon="17.7476823">
        <ele>61.6617</ele>
        <time>2012-04-24T15:59:31Z</time>
      </trkpt>
      <trkpt lat="59.9914303" lon="17.7475352">
        <ele>62.1423</ele>
        <time>2012-04-24T15:59:35Z</time>
      </trkpt>
      <trkpt lat="59.9914663" lon="17.7474171">
        <ele>63.1036</ele>
        <time>2012-04-24T15:59:38Z</time>
      </trkpt>
      <trkpt lat="59.9915109" lon="17.7472235">
        <ele>65.0264</ele>
        <time>2012-04-24T15:59:43Z</time>
      </trkpt>
      <trkpt lat="59.9915455" lon="17.7470405">
        <ele>66.4683</ele>
        <time>2012-04-24T15:59:48Z</time>
      </trkpt>
      <trkpt lat="59.9915858" lon="17.7469288">
        <ele>67.4297</ele>
        <time>2012-04-24T15:59:51Z</time>
      </trkpt>
      <trkpt lat="59.9916107" lon="17.746824">
        <ele>67.4297</ele>
        <time>2012-04-24T15:59:54Z</time>
      </trkpt>
      <trkpt lat="59.9916148" lon="17.7465686">
        <ele>68.8716</ele>
        <time>2012-04-24T15:59:59Z</time>
      </trkpt>
      <trkpt lat="59.9916546" lon="17.7463371">
        <ele>68.8716</ele>
        <time>2012-04-24T16:00:04Z</time>
      </trkpt>
      <trkpt lat="59.9917169" lon="17.7460704">
        <ele>73.1976</ele>
        <time>2012-04-24T16:00:10Z</time>
      </trkpt>
      <trkpt lat="59.9917313" lon="17.7459885">
        <ele>73.1976</ele>
        <time>2012-04-24T16:00:12Z</time>
      </trkpt>
      <trkpt lat="59.9917792" lon="17.7457116">
        <ele>71.2749</ele>
        <time>2012-04-24T16:00:18Z</time>
      </trkpt>
      <trkpt lat="59.9917854" lon="17.74568">
        <ele>70.7942</ele>
        <time>2012-04-24T16:00:19Z</time>
      </trkpt>
      <trkpt lat="59.9918014" lon="17.7455296">
        <ele>69.3523</ele>
        <time>2012-04-24T16:00:23Z</time>
      </trkpt>
      <trkpt lat="59.9918391" lon="17.7452741">
        <ele>67.4297</ele>
        <time>2012-04-24T16:00:29Z</time>
      </trkpt>
      <trkpt lat="59.9918559" lon="17.7450876">
        <ele>66.949</ele>
        <time>2012-04-24T16:00:33Z</time>
      </trkpt>
      <trkpt lat="59.9918558" lon="17.7449302">
        <ele>68.3909</ele>
        <time>2012-04-24T16:00:36Z</time>
      </trkpt>
      <trkpt lat="59.991869" lon="17.7448318">
        <ele>69.3523</ele>
        <time>2012-04-24T16:00:38Z</time>
      </trkpt>
      <trkpt lat="59.9919105" lon="17.744692">
        <ele>71.7555</ele>
        <time>2012-04-24T16:00:41Z</time>
      </trkpt>
      <trkpt lat="59.9919551" lon="17.7444297">
        <ele>75.1202</ele>
        <time>2012-04-24T16:00:47Z</time>
      </trkpt>
      <trkpt lat="59.9920293" lon="17.7442488">
        <ele>77.0428</ele>
        <time>2012-04-24T16:00:52Z</time>
      </trkpt>
      <trkpt lat="59.9920625" lon="17.7441697">
        <ele>77.5234</ele>
        <time>2012-04-24T16:00:54Z</time>
      </trkpt>
      <trkpt lat="59.992121" lon="17.7439635">
        <ele>79.446</ele>
        <time>2012-04-24T16:00:59Z</time>
      </trkpt>
      <trkpt lat="59.9921806" lon="17.7438195">
        <ele>76.0814</ele>
        <time>2012-04-24T16:01:04Z</time>
      </trkpt>
      <trkpt lat="59.9922399" lon="17.7435806">
        <ele>71.7555</ele>
        <time>2012-04-24T16:01:10Z</time>
      </trkpt>
      <trkpt lat="59.9923218" lon="17.7434091">
        <ele>72.2362</ele>
        <time>2012-04-24T16:01:15Z</time>
      </trkpt>
      <trkpt lat="59.9923782" lon="17.7433022">
        <ele>68.8716</ele>
        <time>2012-04-24T16:01:19Z</time>
      </trkpt>
      <trkpt lat="59.992406" lon="17.7431457">
        <ele>67.9103</ele>
        <time>2012-04-24T16:01:23Z</time>
      </trkpt>
      <trkpt lat="59.9924135" lon="17.7431079">
        <ele>67.4297</ele>
        <time>2012-04-24T16:01:24Z</time>
      </trkpt>
      <trkpt lat="59.9924888" lon="17.7428737">
        <ele>63.1036</ele>
        <time>2012-04-24T16:01:31Z</time>
      </trkpt>
      <trkpt lat="59.9925126" lon="17.7428048">
        <ele>61.6617</ele>
        <time>2012-04-24T16:01:33Z</time>
      </trkpt>
      <trkpt lat="59.9925714" lon="17.7426147">
        <ele>58.7777</ele>
        <time>2012-04-24T16:01:38Z</time>
      </trkpt>
      <trkpt lat="59.9926233" lon="17.7424525">
        <ele>57.8165</ele>
        <time>2012-04-24T16:01:42Z</time>
      </trkpt>
      <trkpt lat="59.9926342" lon="17.7424052">
        <ele>57.8165</ele>
        <time>2012-04-24T16:01:43Z</time>
      </trkpt>
      <trkpt lat="59.9926834" lon="17.7422443">
        <ele>56.8551</ele>
        <time>2012-04-24T16:01:47Z</time>
      </trkpt>
      <trkpt lat="59.9927114" lon="17.7420856">
        <ele>57.3358</ele>
        <time>2012-04-24T16:01:51Z</time>
      </trkpt>
      <trkpt lat="59.9927115" lon="17.7419298">
        <ele>57.3358</ele>
        <time>2012-04-24T16:01:54Z</time>
      </trkpt>
      <trkpt lat="59.9927431" lon="17.7418608">
        <ele>57.3358</ele>
        <time>2012-04-24T16:01:56Z</time>
      </trkpt>
      <trkpt lat="59.9927627" lon="17.7416843">
        <ele>55.8938</ele>
        <time>2012-04-24T16:02:00Z</time>
      </trkpt>
      <trkpt lat="59.9927685" lon="17.7414968">
        <ele>54.9324</ele>
        <time>2012-04-24T16:02:05Z</time>
      </trkpt>
      <trkpt lat="59.9927737" lon="17.7412361">
        <ele>53.0098</ele>
        <time>2012-04-24T16:02:11Z</time>
      </trkpt>
      <trkpt lat="59.9927456" lon="17.740959">
        <ele>53.4905</ele>
        <time>2012-04-24T16:02:17Z</time>
      </trkpt>
      <trkpt lat="59.9926895" lon="17.7407653">
        <ele>53.4905</ele>
        <time>2012-04-24T16:02:21Z</time>
      </trkpt>
      <trkpt lat="59.9926401" lon="17.7404692">
        <ele>54.4518</ele>
        <time>2012-04-24T16:02:27Z</time>
      </trkpt>
      <trkpt lat="59.9926303" lon="17.7402738">
        <ele>54.4518</ele>
        <time>2012-04-24T16:02:32Z</time>
      </trkpt>
      <trkpt lat="59.9925852" lon="17.7399951">
        <ele>54.4518</ele>
        <time>2012-04-24T16:02:38Z</time>
      </trkpt>
      <trkpt lat="59.9925629" lon="17.7398188">
        <ele>53.9712</ele>
        <time>2012-04-24T16:02:42Z</time>
      </trkpt>
      <trkpt lat="59.9925308" lon="17.739531">
        <ele>54.4518</ele>
        <time>2012-04-24T16:02:48Z</time>
      </trkpt>
      <trkpt lat="59.9924996" lon="17.7393455">
        <ele>53.4905</ele>
        <time>2012-04-24T16:02:52Z</time>
      </trkpt>
      <trkpt lat="59.9924882" lon="17.7392382">
        <ele>53.9712</ele>
        <time>2012-04-24T16:02:54Z</time>
      </trkpt>
      <trkpt lat="59.9924587" lon="17.7389988">
        <ele>53.4905</ele>
        <time>2012-04-24T16:02:59Z</time>
      </trkpt>
      <trkpt lat="59.9924504" lon="17.7387515">
        <ele>53.4905</ele>
        <time>2012-04-24T16:03:04Z</time>
      </trkpt>
      <trkpt lat="59.9924575" lon="17.7384829">
        <ele>51.5679</ele>
        <time>2012-04-24T16:03:10Z</time>
      </trkpt>
      <trkpt lat="59.9924484" lon="17.7382837">
        <ele>51.5679</ele>
        <time>2012-04-24T16:03:14Z</time>
      </trkpt>
      <trkpt lat="59.9923945" lon="17.7380192">
        <ele>52.5292</ele>
        <time>2012-04-24T16:03:19Z</time>
      </trkpt>
      <trkpt lat="59.992387" lon="17.737848">
        <ele>49.1646</ele>
        <time>2012-04-24T16:03:23Z</time>
      </trkpt>
      <trkpt lat="59.9923923" lon="17.7376491">
        <ele>48.684</ele>
        <time>2012-04-24T16:03:28Z</time>
      </trkpt>
      <trkpt lat="59.992341" lon="17.7374729">
        <ele>47.7225</ele>
        <time>2012-04-24T16:03:32Z</time>
      </trkpt>
      <trkpt lat="59.992237" lon="17.7374342">
        <ele>47.7225</ele>
        <time>2012-04-24T16:03:37Z</time>
      </trkpt>
      <trkpt lat="59.9921852" lon="17.7374712">
        <ele>47.2418</ele>
        <time>2012-04-24T16:03:39Z</time>
      </trkpt>
      <trkpt lat="59.9921112" lon="17.7375312">
        <ele>48.684</ele>
        <time>2012-04-24T16:03:42Z</time>
      </trkpt>
      <trkpt lat="59.992036" lon="17.737573">
        <ele>54.4518</ele>
        <time>2012-04-24T16:03:46Z</time>
      </trkpt>
      <trkpt lat="59.99194" lon="17.7376117">
        <ele>55.4131</ele>
        <time>2012-04-24T16:03:49Z</time>
      </trkpt>
      <trkpt lat="59.9918045" lon="17.7376174">
        <ele>53.9712</ele>
        <time>2012-04-24T16:03:55Z</time>
      </trkpt>
      <trkpt lat="59.9917822" lon="17.7376387">
        <ele>53.4905</ele>
        <time>2012-04-24T16:03:56Z</time>
      </trkpt>
      <trkpt lat="59.9917345" lon="17.73766">
        <ele>53.4905</ele>
        <time>2012-04-24T16:03:58Z</time>
      </trkpt>
      <trkpt lat="59.9915745" lon="17.7376988">
        <ele>56.8551</ele>
        <time>2012-04-24T16:04:05Z</time>
      </trkpt>
      <trkpt lat="59.9914672" lon="17.7377338">
        <ele>60.2197</ele>
        <time>2012-04-24T16:04:10Z</time>
      </trkpt>
      <trkpt lat="59.9913232" lon="17.7377273">
        <ele>65.0264</ele>
        <time>2012-04-24T16:04:16Z</time>
      </trkpt>
      <trkpt lat="59.9912682" lon="17.7377645">
        <ele>69.3523</ele>
        <time>2012-04-24T16:04:19Z</time>
      </trkpt>
      <trkpt lat="59.9911708" lon="17.737819">
        <ele>73.6782</ele>
        <time>2012-04-24T16:04:23Z</time>
      </trkpt>
      <trkpt lat="59.991039" lon="17.7379161">
        <ele>77.5234</ele>
        <time>2012-04-24T16:04:29Z</time>
      </trkpt>
      <trkpt lat="59.9909312" lon="17.7380013">
        <ele>78.4847</ele>
        <time>2012-04-24T16:04:34Z</time>
      </trkpt>
      <trkpt lat="59.9908045" lon="17.7381127">
        <ele>79.9266</ele>
        <time>2012-04-24T16:04:40Z</time>
      </trkpt>
      <trkpt lat="59.9907006" lon="17.7382043">
        <ele>80.8882</ele>
        <time>2012-04-24T16:04:45Z</time>
      </trkpt>
      <trkpt lat="59.9906415" lon="17.7382313">
        <ele>79.9266</ele>
        <time>2012-04-24T16:04:48Z</time>
      </trkpt>
      <trkpt lat="59.9905755" lon="17.7382366">
        <ele>79.9266</ele>
        <time>2012-04-24T16:04:51Z</time>
      </trkpt>
      <trkpt lat="59.9903995" lon="17.7383013">
        <ele>76.0814</ele>
        <time>2012-04-24T16:04:56Z</time>
      </trkpt>
      <trkpt lat="59.9902753" lon="17.7383564">
        <ele>74.6395</ele>
        <time>2012-04-24T16:05:01Z</time>
      </trkpt>
      <trkpt lat="59.9901404" lon="17.7383906">
        <ele>74.1588</ele>
        <time>2012-04-24T16:05:07Z</time>
      </trkpt>
      <trkpt lat="59.9900066" lon="17.7384597">
        <ele>71.2749</ele>
        <time>2012-04-24T16:05:13Z</time>
      </trkpt>
      <trkpt lat="59.9898561" lon="17.7384903">
        <ele>66.949</ele>
        <time>2012-04-24T16:05:19Z</time>
      </trkpt>
      <trkpt lat="59.9898317" lon="17.7385011">
        <ele>66.4683</ele>
        <time>2012-04-24T16:05:20Z</time>
      </trkpt>
      <trkpt lat="59.9897121" lon="17.7384981">
        <ele>65.9877</ele>
        <time>2012-04-24T16:05:26Z</time>
      </trkpt>
      <trkpt lat="59.9895712" lon="17.7385372">
        <ele>65.0264</ele>
        <time>2012-04-24T16:05:32Z</time>
      </trkpt>
      <trkpt lat="59.9893937" lon="17.7385804">
        <ele>65.5071</ele>
        <time>2012-04-24T16:05:38Z</time>
      </trkpt>
      <trkpt lat="59.9892985" lon="17.7386349">
        <ele>65.9877</ele>
        <time>2012-04-24T16:05:43Z</time>
      </trkpt>
      <trkpt lat="59.9891647" lon="17.7387094">
        <ele>63.5844</ele>
        <time>2012-04-24T16:05:49Z</time>
      </trkpt>
      <trkpt lat="59.9890605" lon="17.738761">
        <ele>64.0651</ele>
        <time>2012-04-24T16:05:55Z</time>
      </trkpt>
      <trkpt lat="59.9889497" lon="17.738855">
        <ele>64.0651</ele>
        <time>2012-04-24T16:06:01Z</time>
      </trkpt>
      <trkpt lat="59.988804" lon="17.7389917">
        <ele>65.9877</ele>
        <time>2012-04-24T16:06:08Z</time>
      </trkpt>
      <trkpt lat="59.9886664" lon="17.7390948">
        <ele>63.5844</ele>
        <time>2012-04-24T16:06:14Z</time>
      </trkpt>
      <trkpt lat="59.9885358" lon="17.7391809">
        <ele>64.5457</ele>
        <time>2012-04-24T16:06:20Z</time>
      </trkpt>
      <trkpt lat="59.9885182" lon="17.7391967">
        <ele>65.0264</ele>
        <time>2012-04-24T16:06:21Z</time>
      </trkpt>
      <trkpt lat="59.9884018" lon="17.7392484">
        <ele>65.0264</ele>
        <time>2012-04-24T16:06:28Z</time>
      </trkpt>
      <trkpt lat="59.9883006" lon="17.7392863">
        <ele>63.5844</ele>
        <time>2012-04-24T16:06:32Z</time>
      </trkpt>
      <trkpt lat="59.9882618" lon="17.7393072">
        <ele>65.0264</ele>
        <time>2012-04-24T16:06:34Z</time>
      </trkpt>
      <trkpt lat="59.9881634" lon="17.7393137">
        <ele>65.5071</ele>
        <time>2012-04-24T16:06:38Z</time>
      </trkpt>
      <trkpt lat="59.9880477" lon="17.7393901">
        <ele>70.7942</ele>
        <time>2012-04-24T16:06:44Z</time>
      </trkpt>
      <trkpt lat="59.9879603" lon="17.7393847">
        <ele>73.1976</ele>
        <time>2012-04-24T16:06:48Z</time>
      </trkpt>
      <trkpt lat="59.9878029" lon="17.7393841">
        <ele>69.8329</ele>
        <time>2012-04-24T16:06:53Z</time>
      </trkpt>
      <trkpt lat="59.9877128" lon="17.7393869">
        <ele>69.3523</ele>
        <time>2012-04-24T16:06:56Z</time>
      </trkpt>
      <trkpt lat="59.9876133" lon="17.7393852">
        <ele>69.3523</ele>
        <time>2012-04-24T16:07:01Z</time>
      </trkpt>
      <trkpt lat="59.9875423" lon="17.7393785">
        <ele>69.8329</ele>
        <time>2012-04-24T16:07:04Z</time>
      </trkpt>
      <trkpt lat="59.9874198" lon="17.739407">
        <ele>66.949</ele>
        <time>2012-04-24T16:07:08Z</time>
      </trkpt>
      <trkpt lat="59.9872289" lon="17.7394147">
        <ele>55.8938</ele>
        <time>2012-04-24T16:07:13Z</time>
      </trkpt>
      <trkpt lat="59.9871086" lon="17.7393992">
        <ele>49.1646</ele>
        <time>2012-04-24T16:07:17Z</time>
      </trkpt>
      <trkpt lat="59.9869807" lon="17.7393548">
        <ele>45.3192</ele>
        <time>2012-04-24T16:07:21Z</time>
      </trkpt>
      <trkpt lat="59.9868736" lon="17.739288">
        <ele>41.9547</ele>
        <time>2012-04-24T16:07:26Z</time>
      </trkpt>
      <trkpt lat="59.9868032" lon="17.7392163">
        <ele>40.5128</ele>
        <time>2012-04-24T16:07:30Z</time>
      </trkpt>
      <trkpt lat="59.9867133" lon="17.739114">
        <ele>41.9547</ele>
        <time>2012-04-24T16:07:35Z</time>
      </trkpt>
      <trkpt lat="59.9866249" lon="17.7390232">
        <ele>40.5128</ele>
        <time>2012-04-24T16:07:40Z</time>
      </trkpt>
      <trkpt lat="59.9865353" lon="17.7389338">
        <ele>41.9547</ele>
        <time>2012-04-24T16:07:45Z</time>
      </trkpt>
      <trkpt lat="59.9864321" lon="17.7388549">
        <ele>41.474</ele>
        <time>2012-04-24T16:07:49Z</time>
      </trkpt>
      <trkpt lat="59.9864085" lon="17.7388369">
        <ele>43.3966</ele>
        <time>2012-04-24T16:07:50Z</time>
      </trkpt>
      <trkpt lat="59.9862844" lon="17.7387499">
        <ele>48.2034</ele>
        <time>2012-04-24T16:07:56Z</time>
      </trkpt>
      <trkpt lat="59.9861514" lon="17.738656">
        <ele>51.0872</ele>
        <time>2012-04-24T16:08:02Z</time>
      </trkpt>
      <trkpt lat="59.9861183" lon="17.7386437">
        <ele>51.0872</ele>
        <time>2012-04-24T16:08:04Z</time>
      </trkpt>
      <trkpt lat="59.9859883" lon="17.7385602">
        <ele>51.0872</ele>
        <time>2012-04-24T16:08:10Z</time>
      </trkpt>
      <trkpt lat="59.9858748" lon="17.7384768">
        <ele>52.0486</ele>
        <time>2012-04-24T16:08:15Z</time>
      </trkpt>
      <trkpt lat="59.9857427" lon="17.7384699">
        <ele>55.4131</ele>
        <time>2012-04-24T16:08:20Z</time>
      </trkpt>
      <trkpt lat="59.9856833" lon="17.7384364">
        <ele>58.2971</ele>
        <time>2012-04-24T16:08:23Z</time>
      </trkpt>
      <trkpt lat="59.9855686" lon="17.738382">
        <ele>61.181</ele>
        <time>2012-04-24T16:08:29Z</time>
      </trkpt>
      <trkpt lat="59.985452" lon="17.7383344">
        <ele>60.2197</ele>
        <time>2012-04-24T16:08:34Z</time>
      </trkpt>
      <trkpt lat="59.9853122" lon="17.7382353">
        <ele>58.2971</ele>
        <time>2012-04-24T16:08:40Z</time>
      </trkpt>
      <trkpt lat="59.9851863" lon="17.738205">
        <ele>54.4518</ele>
        <time>2012-04-24T16:08:45Z</time>
      </trkpt>
      <trkpt lat="59.9850854" lon="17.7381691">
        <ele>53.0098</ele>
        <time>2012-04-24T16:08:50Z</time>
      </trkpt>
      <trkpt lat="59.9849662" lon="17.7381499">
        <ele>54.4518</ele>
        <time>2012-04-24T16:08:56Z</time>
      </trkpt>
      <trkpt lat="59.9848513" lon="17.7381266">
        <ele>56.3745</ele>
        <time>2012-04-24T16:09:01Z</time>
      </trkpt>
      <trkpt lat="59.9846632" lon="17.7380974">
        <ele>56.3745</ele>
        <time>2012-04-24T16:09:06Z</time>
      </trkpt>
      <trkpt lat="59.9845874" lon="17.7380698">
        <ele>57.3358</ele>
        <time>2012-04-24T16:09:10Z</time>
      </trkpt>
      <trkpt lat="59.9844366" lon="17.7380283">
        <ele>56.3745</ele>
        <time>2012-04-24T16:09:15Z</time>
      </trkpt>
      <trkpt lat="59.9843352" lon="17.7380199">
        <ele>58.7777</ele>
        <time>2012-04-24T16:09:20Z</time>
      </trkpt>
      <trkpt lat="59.9841649" lon="17.7380106">
        <ele>62.1423</ele>
        <time>2012-04-24T16:09:26Z</time>
      </trkpt>
      <trkpt lat="59.984023" lon="17.7379879">
        <ele>58.7777</ele>
        <time>2012-04-24T16:09:31Z</time>
      </trkpt>
      <trkpt lat="59.9838851" lon="17.7379919">
        <ele>55.8938</ele>
        <time>2012-04-24T16:09:36Z</time>
      </trkpt>
      <trkpt lat="59.9837684" lon="17.7380156">
        <ele>48.684</ele>
        <time>2012-04-24T16:09:40Z</time>
      </trkpt>
      <trkpt lat="59.9836432" lon="17.7380681">
        <ele>48.2034</ele>
        <time>2012-04-24T16:09:45Z</time>
      </trkpt>
      <trkpt lat="59.983622" lon="17.7380567">
        <ele>47.7225</ele>
        <time>2012-04-24T16:09:46Z</time>
      </trkpt>
      <trkpt lat="59.9835346" lon="17.7380614">
        <ele>48.2034</ele>
        <time>2012-04-24T16:09:51Z</time>
      </trkpt>
      <trkpt lat="59.9835153" lon="17.7380617">
        <ele>48.684</ele>
        <time>2012-04-24T16:09:52Z</time>
      </trkpt>
      <trkpt lat="59.9833805" lon="17.7381447">
        <ele>53.0098</ele>
        <time>2012-04-24T16:09:57Z</time>
      </trkpt>
      <trkpt lat="59.9833215" lon="17.738148">
        <ele>52.5292</ele>
        <time>2012-04-24T16:09:59Z</time>
      </trkpt>
      <trkpt lat="59.9832579" lon="17.7381568">
        <ele>52.0486</ele>
        <time>2012-04-24T16:10:02Z</time>
      </trkpt>
      <trkpt lat="59.9831386" lon="17.7382068">
        <ele>57.3358</ele>
        <time>2012-04-24T16:10:07Z</time>
      </trkpt>
      <trkpt lat="59.9830398" lon="17.7382358">
        <ele>57.3358</ele>
        <time>2012-04-24T16:10:11Z</time>
      </trkpt>
      <trkpt lat="59.982907" lon="17.7381768">
        <ele>53.9712</ele>
        <time>2012-04-24T16:10:17Z</time>
      </trkpt>
      <trkpt lat="59.9828206" lon="17.7381878">
        <ele>54.4518</ele>
        <time>2012-04-24T16:10:21Z</time>
      </trkpt>
      <trkpt lat="59.9827112" lon="17.7381721">
        <ele>54.4518</ele>
        <time>2012-04-24T16:10:25Z</time>
      </trkpt>
      <trkpt lat="59.982614" lon="17.73817">
        <ele>56.8551</ele>
        <time>2012-04-24T16:10:29Z</time>
      </trkpt>
      <trkpt lat="59.9825736" lon="17.7381877">
        <ele>59.7391</ele>
        <time>2012-04-24T16:10:31Z</time>
      </trkpt>
      <trkpt lat="59.9824813" lon="17.7382065">
        <ele>61.181</ele>
        <time>2012-04-24T16:10:35Z</time>
      </trkpt>
      <trkpt lat="59.9823418" lon="17.7382208">
        <ele>65.0264</ele>
        <time>2012-04-24T16:10:41Z</time>
      </trkpt>
      <trkpt lat="59.982252" lon="17.7382756">
        <ele>66.4683</ele>
        <time>2012-04-24T16:10:45Z</time>
      </trkpt>
      <trkpt lat="59.9820638" lon="17.7383031">
        <ele>60.2197</ele>
        <time>2012-04-24T16:10:51Z</time>
      </trkpt>
      <trkpt lat="59.9819576" lon="17.7383292">
        <ele>59.2584</ele>
        <time>2012-04-24T16:10:56Z</time>
      </trkpt>
      <trkpt lat="59.9818894" lon="17.7383828">
        <ele>62.1423</ele>
        <time>2012-04-24T16:11:00Z</time>
      </trkpt>
      <trkpt lat="59.9818053" lon="17.7384259">
        <ele>64.0651</ele>
        <time>2012-04-24T16:11:04Z</time>
      </trkpt>
      <trkpt lat="59.9816458" lon="17.7384658">
        <ele>62.6229</ele>
        <time>2012-04-24T16:11:10Z</time>
      </trkpt>
      <trkpt lat="59.9814691" lon="17.7385554">
        <ele>64.5457</ele>
        <time>2012-04-24T16:11:16Z</time>
      </trkpt>
      <trkpt lat="59.9814167" lon="17.7385828">
        <ele>63.5844</ele>
        <time>2012-04-24T16:11:18Z</time>
      </trkpt>
      <trkpt lat="59.9813275" lon="17.7386125">
        <ele>63.5844</ele>
        <time>2012-04-24T16:11:21Z</time>
      </trkpt>
      <trkpt lat="59.981207" lon="17.7386134">
        <ele>61.181</ele>
        <time>2012-04-24T16:11:28Z</time>
      </trkpt>
      <trkpt lat="59.9811955" lon="17.7386167">
        <ele>60.2197</ele>
        <time>2012-04-24T16:11:29Z</time>
      </trkpt>
      <trkpt lat="59.9811267" lon="17.7386597">
        <ele>55.8938</ele>
        <time>2012-04-24T16:11:31Z</time>
      </trkpt>
      <trkpt lat="59.9810408" lon="17.7387121">
        <ele>55.4131</ele>
        <time>2012-04-24T16:11:38Z</time>
      </trkpt>
      <trkpt lat="59.9809808" lon="17.7387167">
        <ele>52.5292</ele>
        <time>2012-04-24T16:11:42Z</time>
      </trkpt>
      <trkpt lat="59.9808974" lon="17.7386929">
        <ele>52.0486</ele>
        <time>2012-04-24T16:11:47Z</time>
      </trkpt>
      <trkpt lat="59.9808745" lon="17.7386883">
        <ele>51.5679</ele>
        <time>2012-04-24T16:11:49Z</time>
      </trkpt>
      <trkpt lat="59.9808126" lon="17.738711">
        <ele>50.126</ele>
        <time>2012-04-24T16:11:53Z</time>
      </trkpt>
      <trkpt lat="59.9807201" lon="17.7387639">
        <ele>47.7225</ele>
        <time>2012-04-24T16:12:00Z</time>
      </trkpt>
      <trkpt lat="59.9807086" lon="17.738769">
        <ele>47.2418</ele>
        <time>2012-04-24T16:12:01Z</time>
      </trkpt>
      <trkpt lat="59.9806253" lon="17.7387922">
        <ele>47.7225</ele>
        <time>2012-04-24T16:12:07Z</time>
      </trkpt>
      <trkpt lat="59.9805854" lon="17.7388349">
        <ele>46.7612</ele>
        <time>2012-04-24T16:12:11Z</time>
      </trkpt>
      <trkpt lat="59.9805448" lon="17.7388208">
        <ele>45.7999</ele>
        <time>2012-04-24T16:12:14Z</time>
      </trkpt>
      <trkpt lat="59.9804201" lon="17.7388815">
        <ele>47.2418</ele>
        <time>2012-04-24T16:12:22Z</time>
      </trkpt>
      <trkpt lat="59.9803558" lon="17.7388929">
        <ele>44.358</ele>
        <time>2012-04-24T16:12:25Z</time>
      </trkpt>
      <trkpt lat="59.9802643" lon="17.7388602">
        <ele>40.0321</ele>
        <time>2012-04-24T16:12:31Z</time>
      </trkpt>
      <trkpt lat="59.9802306" lon="17.7388611">
        <ele>40.0321</ele>
        <time>2012-04-24T16:12:33Z</time>
      </trkpt>
      <trkpt lat="59.9801434" lon="17.7388318">
        <ele>37.1481</ele>
        <time>2012-04-24T16:12:38Z</time>
      </trkpt>
      <trkpt lat="59.9801232" lon="17.7388254">
        <ele>38.5901</ele>
        <time>2012-04-24T16:12:41Z</time>
      </trkpt>
      <trkpt lat="59.9800606" lon="17.7388244">
        <ele>41.9547</ele>
        <time>2012-04-24T16:12:47Z</time>
      </trkpt>
      <trkpt lat="59.9800296" lon="17.7388286">
        <ele>41.474</ele>
        <time>2012-04-24T16:12:49Z</time>
      </trkpt>
      <trkpt lat="59.9799686" lon="17.7387825">
        <ele>48.684</ele>
        <time>2012-04-24T16:12:55Z</time>
      </trkpt>
      <trkpt lat="59.9799534" lon="17.7387803">
        <ele>48.2034</ele>
        <time>2012-04-24T16:12:56Z</time>
      </trkpt>
      <trkpt lat="59.9798857" lon="17.7387767">
        <ele>45.7999</ele>
        <time>2012-04-24T16:13:01Z</time>
      </trkpt>
      <trkpt lat="59.9798302" lon="17.7388102">
        <ele>43.3966</ele>
        <time>2012-04-24T16:13:06Z</time>
      </trkpt>
      <trkpt lat="59.9797515" lon="17.7388652">
        <ele>41.9547</ele>
        <time>2012-04-24T16:13:12Z</time>
      </trkpt>
      <trkpt lat="59.9796654" lon="17.7388948">
        <ele>38.1094</ele>
        <time>2012-04-24T16:13:18Z</time>
      </trkpt>
      <trkpt lat="59.979573" lon="17.7389171">
        <ele>33.7834</ele>
        <time>2012-04-24T16:13:25Z</time>
      </trkpt>
      <trkpt lat="59.9795016" lon="17.7389435">
        <ele>29.4575</ele>
        <time>2012-04-24T16:13:31Z</time>
      </trkpt>
      <trkpt lat="59.9794887" lon="17.7389485">
        <ele>28.9769</ele>
        <time>2012-04-24T16:13:32Z</time>
      </trkpt>
      <trkpt lat="59.9793982" lon="17.7389701">
        <ele>26.0929</ele>
        <time>2012-04-24T16:13:39Z</time>
      </trkpt>
      <trkpt lat="59.979333" lon="17.7390148">
        <ele>23.6896</ele>
        <time>2012-04-24T16:13:44Z</time>
      </trkpt>
      <trkpt lat="59.9793017" lon="17.7390508">
        <ele>25.1317</ele>
        <time>2012-04-24T16:13:47Z</time>
      </trkpt>
      <trkpt lat="59.9791882" lon="17.739135">
        <ele>26.0929</ele>
        <time>2012-04-24T16:13:56Z</time>
      </trkpt>
      <trkpt lat="59.9791097" lon="17.7391663">
        <ele>27.0543</ele>
        <time>2012-04-24T16:14:02Z</time>
      </trkpt>
      <trkpt lat="59.9790744" lon="17.7392036">
        <ele>28.4962</ele>
        <time>2012-04-24T16:14:05Z</time>
      </trkpt>
      <trkpt lat="59.9790182" lon="17.739251">
        <ele>29.4575</ele>
        <time>2012-04-24T16:14:11Z</time>
      </trkpt>
      <trkpt lat="59.9789283" lon="17.7393065">
        <ele>28.4962</ele>
        <time>2012-04-24T16:14:17Z</time>
      </trkpt>
      <trkpt lat="59.9789185" lon="17.7393091">
        <ele>28.4962</ele>
        <time>2012-04-24T16:14:18Z</time>
      </trkpt>
    </trkseg>
  </trk>
</gpx>